createdAt,value
2018-12-31T06:01:53.657Z,7.93
2018-12-31T06:04:24.305Z,7.57
2018-12-31T06:06:54.925Z,9.43
2018-12-31T06:09:25.581Z,9.20
2018-12-31T06:11:56.276Z,9.50
2018-12-31T06:14:26.991Z,9.03
2018-12-31T06:16:57.690Z,9.97
2018-12-31T06:19:28.354Z,8.23
2018-12-31T06:21:59.036Z,7.40
2018-12-31T06:24:29.757Z,8.90
2018-12-31T06:27:00.369Z,8.17
2018-12-31T06:29:31.105Z,9.37
2018-12-31T06:32:01.722Z,7.77
2018-12-31T06:34:32.437Z,8.40
2018-12-31T06:37:03.044Z,8.47
2018-12-31T06:39:33.677Z,9.07
2018-12-31T06:42:04.314Z,9.87
2018-12-31T06:44:34.949Z,10.17
2018-12-31T06:47:05.569Z,12.13
2018-12-31T06:49:36.130Z,12.60
2018-12-31T06:52:06.682Z,9.40
2018-12-31T06:54:37.242Z,11.43
2018-12-31T06:57:07.873Z,11.80
2018-12-31T06:59:38.517Z,9.90
2018-12-31T07:02:09.129Z,9.50
2018-12-31T07:04:39.701Z,7.67
2018-12-31T07:07:10.345Z,8.50
2018-12-31T07:09:41.285Z,9.67
2018-12-31T07:12:11.985Z,10.20
2018-12-31T07:14:42.551Z,8.17
2018-12-31T07:17:13.265Z,7.70
2018-12-31T07:19:44.001Z,8.50
2018-12-31T07:22:14.533Z,8.40
2018-12-31T07:24:45.390Z,10.10
2018-12-31T07:27:16.179Z,12.07
2018-12-31T07:29:47.329Z,9.53
2018-12-31T07:32:18.074Z,9.10
2018-12-31T07:34:48.743Z,7.43
2018-12-31T07:37:19.437Z,9.70
2018-12-31T07:39:50.219Z,11.13
2018-12-31T07:42:20.921Z,8.40
2018-12-31T07:44:51.510Z,12.23
2018-12-31T07:47:22.222Z,11.47
2018-12-31T07:49:53.581Z,10.30
2018-12-31T07:52:24.210Z,9.37
2018-12-31T07:54:55.906Z,9.60
2018-12-31T07:57:26.567Z,10.50
2018-12-31T07:59:57.351Z,9.10
2018-12-31T08:02:28.046Z,9.27
2018-12-31T08:04:58.812Z,9.17
2018-12-31T08:07:29.541Z,9.67
2018-12-31T08:10:00.204Z,10.20
2018-12-31T08:12:30.939Z,8.30
2018-12-31T08:15:01.689Z,9.93
2018-12-31T08:17:33.161Z,8.50
2018-12-31T08:20:05.041Z,10.70
2018-12-31T08:22:36.541Z,13.07
2018-12-31T08:25:07.202Z,12.10
2018-12-31T08:27:37.918Z,12.50
2018-12-31T08:30:08.670Z,13.10
2018-12-31T08:32:39.379Z,10.37
2018-12-31T08:35:10.040Z,11.37
2018-12-31T08:37:40.736Z,12.27
2018-12-31T08:40:11.449Z,11.50
2018-12-31T08:42:42.093Z,10.23
2018-12-31T08:45:12.770Z,10.23
2018-12-31T08:47:43.485Z,8.13
2018-12-31T08:50:14.149Z,8.80
2018-12-31T08:52:46.105Z,8.80
2018-12-31T08:55:17.276Z,7.10
2018-12-31T08:57:48.753Z,8.10
2018-12-31T09:00:19.601Z,7.87
2018-12-31T09:02:50.317Z,7.30
2018-12-31T09:05:21.038Z,7.30
2018-12-31T09:07:51.734Z,7.50
2018-12-31T09:10:22.398Z,7.00
2018-12-31T09:12:53.034Z,7.20
2018-12-31T09:15:23.694Z,7.43
2018-12-31T09:17:54.425Z,8.30
2018-12-31T09:20:25.070Z,7.03
2018-12-31T09:22:55.837Z,6.23
2018-12-31T09:25:26.417Z,6.63
2018-12-31T09:27:57.109Z,6.70
2018-12-31T09:30:27.750Z,7.13
2018-12-31T09:32:58.458Z,9.60
2018-12-31T09:35:29.081Z,8.73
2018-12-31T09:37:59.797Z,8.27
2018-12-31T09:40:30.630Z,10.20
2018-12-31T09:43:01.284Z,10.63
2018-12-31T09:45:32.006Z,12.67
2018-12-31T09:48:02.814Z,9.90
2018-12-31T09:50:33.512Z,9.80
2018-12-31T09:53:04.222Z,10.13
2018-12-31T09:55:34.845Z,8.30
2018-12-31T09:58:05.468Z,7.73
2018-12-31T10:00:36.421Z,10.30
2018-12-31T10:03:11.180Z,8.63
2018-12-31T10:05:41.938Z,8.67
2018-12-31T10:08:12.578Z,9.33
2018-12-31T10:10:43.269Z,9.70
2018-12-31T10:13:13.900Z,8.13
2018-12-31T10:15:44.600Z,8.53
2018-12-31T10:18:15.165Z,7.60
2018-12-31T10:20:45.790Z,8.07
2018-12-31T10:23:23.786Z,8.67
2018-12-31T10:25:54.951Z,9.10
2018-12-31T10:28:25.627Z,8.90
2018-12-31T10:30:56.364Z,8.60
2018-12-31T10:33:27.507Z,9.27
2018-12-31T10:35:58.007Z,8.77
2018-12-31T10:38:29.637Z,9.43
2018-12-31T10:41:00.410Z,8.67
2018-12-31T10:43:31.109Z,7.87
2018-12-31T10:46:01.662Z,9.63
2018-12-31T10:48:32.405Z,8.30
2018-12-31T10:51:03.025Z,8.73
2018-12-31T10:53:35.654Z,7.10
2018-12-31T10:56:06.538Z,7.20
2018-12-31T10:58:37.398Z,7.20
2018-12-31T11:01:08.214Z,7.80
2018-12-31T11:03:38.997Z,7.87
2018-12-31T11:06:09.717Z,6.53
2018-12-31T11:08:40.727Z,6.77
2018-12-31T11:11:11.597Z,7.70
2018-12-31T11:13:42.438Z,7.03
2018-12-31T11:16:13.296Z,7.23
2018-12-31T11:18:44.194Z,7.50
2018-12-31T11:21:14.921Z,8.57
2018-12-31T11:23:45.638Z,8.43
2018-12-31T11:26:16.283Z,9.03
2018-12-31T11:28:47.018Z,7.70
2018-12-31T11:31:17.683Z,6.60
2018-12-31T11:33:47.995Z,8.57
2018-12-31T11:36:18.580Z,8.17
2018-12-31T11:38:50.070Z,8.50
2018-12-31T11:41:20.209Z,9.27
2018-12-31T11:43:50.989Z,9.20
2018-12-31T11:46:21.847Z,8.40
2018-12-31T11:48:54.758Z,7.40
2018-12-31T11:51:27.004Z,6.97
2018-12-31T11:53:57.599Z,6.80
2018-12-31T11:56:28.402Z,7.53
2018-12-31T11:58:59.174Z,7.70
2018-12-31T12:01:30.933Z,7.07
2018-12-31T12:04:01.641Z,8.00
2018-12-31T12:06:35.706Z,8.23
2018-12-31T12:09:07.493Z,8.40
2018-12-31T12:11:38.246Z,8.00
2018-12-31T12:14:10.160Z,8.27
2018-12-31T12:16:41.036Z,7.50
2018-12-31T12:19:12.912Z,7.83
2018-12-31T12:21:44.141Z,7.53
2018-12-31T12:24:15.626Z,7.87
2018-12-31T12:27:37.655Z,7.63
2018-12-31T12:30:11.627Z,7.30
2018-12-31T12:32:45.488Z,7.50
2018-12-31T12:35:17.197Z,7.80
2018-12-31T12:37:48.709Z,10.97
2018-12-31T12:40:20.184Z,13.00
2018-12-31T12:42:52.190Z,10.03
2018-12-31T12:45:24.477Z,10.60
2018-12-31T12:47:55.903Z,12.40
2018-12-31T12:50:27.301Z,9.83
2018-12-31T12:52:58.972Z,9.23
2018-12-31T12:55:31.102Z,9.60
2018-12-31T12:58:02.274Z,8.40
2018-12-31T13:00:33.839Z,8.13
2018-12-31T13:03:04.478Z,8.57
2018-12-31T13:05:35.281Z,8.00
2018-12-31T13:08:05.914Z,8.50
2018-12-31T13:10:36.623Z,8.70
2018-12-31T13:13:07.237Z,9.03
2018-12-31T13:15:37.932Z,7.83
2018-12-31T13:18:08.621Z,9.53
2018-12-31T13:20:39.330Z,12.20
2018-12-31T13:23:09.962Z,10.83
2018-12-31T13:25:41.103Z,10.50
2018-12-31T13:28:11.725Z,10.10
2018-12-31T13:30:42.346Z,8.57
2018-12-31T13:33:12.953Z,10.30
2018-12-31T13:35:43.581Z,9.53
2018-12-31T13:38:14.278Z,9.13
2018-12-31T13:40:44.997Z,9.67
2018-12-31T13:43:15.621Z,9.07
2018-12-31T13:45:46.398Z,8.90
2018-12-31T13:48:17.377Z,8.10
2018-12-31T13:50:48.001Z,8.33
2018-12-31T13:53:18.689Z,6.93
2018-12-31T13:55:49.330Z,6.97
2018-12-31T13:58:19.996Z,7.70
2018-12-31T14:00:50.697Z,9.33
2018-12-31T14:03:22.035Z,9.30
2018-12-31T14:05:54.069Z,8.30
2018-12-31T14:08:24.777Z,7.93
2018-12-31T14:10:55.521Z,8.30
2018-12-31T14:13:26.218Z,8.57
2018-12-31T14:15:56.888Z,7.50
2018-12-31T14:18:27.566Z,7.70
2018-12-31T14:20:58.769Z,8.90
2018-12-31T14:23:29.453Z,8.27
2018-12-31T14:26:00.147Z,8.00
2018-12-31T14:28:30.737Z,8.70
2018-12-31T14:31:01.364Z,9.60
2018-12-31T14:33:32.049Z,8.90
2018-12-31T14:36:02.764Z,9.77
2018-12-31T14:38:33.457Z,21.80
2018-12-31T14:41:05.288Z,14.53
2018-12-31T14:43:35.898Z,11.87
2018-12-31T14:46:06.702Z,11.80
2018-12-31T14:48:37.399Z,10.37
2018-12-31T14:51:08.154Z,11.80
2018-12-31T14:53:39.134Z,12.67
2018-12-31T14:56:09.960Z,10.97
2018-12-31T14:58:40.699Z,11.10
2018-12-31T15:01:12.692Z,12.20
2018-12-31T15:03:44.019Z,12.33
2018-12-31T15:06:15.227Z,10.80
2018-12-31T15:08:47.031Z,10.50
2018-12-31T15:11:17.761Z,9.80
2018-12-31T15:13:48.945Z,9.53
2018-12-31T15:16:20.324Z,10.27
2018-12-31T15:18:51.934Z,10.23
2018-12-31T15:21:22.666Z,11.83
2018-12-31T15:23:53.658Z,11.10
2018-12-31T15:26:24.772Z,11.00
2018-12-31T15:28:55.802Z,11.83
2018-12-31T15:31:26.521Z,11.27
2018-12-31T15:33:57.351Z,11.43
2018-12-31T15:36:28.163Z,11.53
2018-12-31T15:38:59.761Z,10.43
2018-12-31T15:41:30.405Z,10.47
2018-12-31T15:44:01.357Z,11.00
2018-12-31T15:46:33.074Z,10.73
2018-12-31T15:49:04.007Z,13.40
2018-12-31T15:51:34.718Z,13.70
2018-12-31T15:54:05.510Z,14.73
2018-12-31T15:56:36.145Z,18.13
2018-12-31T15:59:09.028Z,18.57
2018-12-31T16:01:44.969Z,18.23
2018-12-31T16:04:15.848Z,16.23
2018-12-31T16:06:48.257Z,16.07
2018-12-31T16:09:19.402Z,16.40
2018-12-31T16:11:50.073Z,18.03
2018-12-31T16:14:25.479Z,20.80
2018-12-31T16:16:57.157Z,27.03
2018-12-31T16:19:29.899Z,27.87
2018-12-31T16:22:01.208Z,22.90
2018-12-31T16:24:32.420Z,20.87
2018-12-31T16:27:03.764Z,19.83
2018-12-31T16:29:35.418Z,18.50
2018-12-31T16:32:07.472Z,20.40
2018-12-31T16:34:39.595Z,24.23
2018-12-31T16:37:11.192Z,24.57
2018-12-31T16:39:42.435Z,26.00
2018-12-31T16:42:13.735Z,24.50
2018-12-31T16:44:46.460Z,19.97
2018-12-31T16:47:17.085Z,18.80
2018-12-31T16:49:52.967Z,18.33
2018-12-31T16:52:24.300Z,14.70
2018-12-31T16:54:56.192Z,12.40
2018-12-31T16:57:28.028Z,12.40
2018-12-31T17:00:04.212Z,15.73
2018-12-31T17:02:36.131Z,17.07
2018-12-31T17:05:08.616Z,16.30
2018-12-31T17:07:42.251Z,16.13
2018-12-31T17:10:15.747Z,15.13
2018-12-31T17:12:50.703Z,14.17
2018-12-31T17:15:22.390Z,15.33
2018-12-31T17:17:53.885Z,16.87
2018-12-31T17:20:27.333Z,18.00
2018-12-31T17:22:58.956Z,18.80
2018-12-31T17:25:30.717Z,20.17
2018-12-31T17:28:02.409Z,17.60
2018-12-31T17:30:34.244Z,15.60
2018-12-31T17:33:05.740Z,16.43
2018-12-31T17:35:37.584Z,16.80
2018-12-31T17:38:09.102Z,19.03
2018-12-31T17:40:40.326Z,20.73
2018-12-31T17:43:12.328Z,20.00
2018-12-31T17:45:43.557Z,20.20
2018-12-31T17:48:15.233Z,19.30
2018-12-31T17:50:47.340Z,20.97
2018-12-31T17:53:19.479Z,22.30
2018-12-31T17:55:50.352Z,26.47
2018-12-31T17:58:21.630Z,23.83
2018-12-31T18:00:52.396Z,20.97
2018-12-31T18:03:22.509Z,21.63
2018-12-31T18:05:53.417Z,29.10
2018-12-31T18:08:24.254Z,28.63
2018-12-31T18:10:55.508Z,28.23
2018-12-31T18:13:27.030Z,28.27
2018-12-31T18:15:58.578Z,27.07
2018-12-31T18:18:30.339Z,27.10
2018-12-31T18:21:01.858Z,26.90
2018-12-31T18:23:33.042Z,27.00
2018-12-31T18:26:04.651Z,25.80
2018-12-31T18:28:35.911Z,28.50
2018-12-31T18:31:07.422Z,27.77
2018-12-31T18:33:38.766Z,32.37
2018-12-31T18:36:10.568Z,33.57
2018-12-31T18:38:42.481Z,33.70
2018-12-31T18:41:13.894Z,32.30
2018-12-31T18:43:45.436Z,31.33
2018-12-31T18:46:17.114Z,29.80
2018-12-31T18:48:48.190Z,30.03
2018-12-31T18:51:18.997Z,29.00
2018-12-31T18:53:49.613Z,26.53
2018-12-31T18:56:20.329Z,23.70
2018-12-31T18:58:51.033Z,25.53
2018-12-31T19:01:22.321Z,24.63
2018-12-31T19:03:54.185Z,24.47
2018-12-31T19:06:31.839Z,25.93
2018-12-31T19:09:04.835Z,25.00
2018-12-31T19:11:36.376Z,23.87
2018-12-31T19:14:08.743Z,23.97
2018-12-31T19:16:42.302Z,22.70
2018-12-31T19:19:14.243Z,22.23
2018-12-31T19:21:47.469Z,40.87
2018-12-31T19:24:18.959Z,96.97
2018-12-31T19:26:50.325Z,46.87
2018-12-31T19:29:21.917Z,50.20
2018-12-31T19:31:53.605Z,39.67
2018-12-31T19:34:25.358Z,29.00
2018-12-31T19:36:57.038Z,29.03
2018-12-31T19:39:28.531Z,30.30
2018-12-31T19:42:00.248Z,30.90
2018-12-31T19:44:31.937Z,30.43
2018-12-31T19:47:04.299Z,31.10
2018-12-31T19:49:34.999Z,31.80
2018-12-31T19:52:05.786Z,33.00
2018-12-31T19:54:36.520Z,30.93
2018-12-31T19:57:07.234Z,30.23
2018-12-31T19:59:37.943Z,30.97
2018-12-31T20:02:09.197Z,30.27
2018-12-31T20:04:40.202Z,31.63
2018-12-31T20:07:10.920Z,30.87
2018-12-31T20:09:41.693Z,32.90
2018-12-31T20:12:12.422Z,30.73
2018-12-31T20:14:43.139Z,33.57
2018-12-31T20:17:13.874Z,34.67
2018-12-31T20:19:44.612Z,32.30
2018-12-31T20:22:15.515Z,33.47
2018-12-31T20:24:46.218Z,34.80
2018-12-31T20:27:17.233Z,35.10
2018-12-31T20:29:47.941Z,37.50
2018-12-31T20:32:18.588Z,39.17
2018-12-31T20:34:49.880Z,54.40
2018-12-31T20:37:21.253Z,52.37
2018-12-31T20:39:52.794Z,48.20
2018-12-31T20:42:24.638Z,50.30
2018-12-31T20:44:55.872Z,56.30
2018-12-31T20:47:27.633Z,138.73
2018-12-31T20:49:59.175Z,67.57
2018-12-31T20:52:30.676Z,44.30
2018-12-31T20:55:01.805Z,42.60
2018-12-31T20:57:33.160Z,44.17
2018-12-31T21:00:05.204Z,43.47
2018-12-31T21:02:37.740Z,40.73
2018-12-31T21:05:09.341Z,36.50
2018-12-31T21:07:40.349Z,34.53
2018-12-31T21:10:12.122Z,38.20
2018-12-31T21:12:46.374Z,38.80
2018-12-31T21:15:17.690Z,34.00
2018-12-31T21:17:48.472Z,31.53
2018-12-31T21:20:20.823Z,29.50
2018-12-31T21:22:52.731Z,34.17
2018-12-31T21:25:23.451Z,36.43
2018-12-31T21:27:54.179Z,33.80
2018-12-31T21:30:24.886Z,35.00
2018-12-31T21:32:55.537Z,36.10
2018-12-31T21:35:26.689Z,33.10
2018-12-31T21:37:57.429Z,33.07
2018-12-31T21:40:28.330Z,36.47
2018-12-31T21:42:59.085Z,42.97
2018-12-31T21:45:29.797Z,38.33
2018-12-31T21:48:00.518Z,49.30
2018-12-31T21:50:31.143Z,60.47
2018-12-31T21:53:01.869Z,51.70
2018-12-31T21:55:32.776Z,48.50
2018-12-31T21:58:04.101Z,49.50
2018-12-31T22:00:34.815Z,51.63
2018-12-31T22:03:05.729Z,57.97
2018-12-31T22:05:36.619Z,51.37
2018-12-31T22:08:08.442Z,48.47
2018-12-31T22:10:39.294Z,53.67
2018-12-31T22:13:10.351Z,50.10
2018-12-31T22:15:41.053Z,50.90
2018-12-31T22:18:11.876Z,47.80
2018-12-31T22:20:42.582Z,53.77
2018-12-31T22:23:13.514Z,54.70
2018-12-31T22:25:44.525Z,53.17
2018-12-31T22:28:15.178Z,47.83
2018-12-31T22:30:45.873Z,52.80
2018-12-31T22:33:17.166Z,43.50
2018-12-31T22:35:48.377Z,47.40
2018-12-31T22:38:19.147Z,43.97
2018-12-31T22:40:49.801Z,42.83
2018-12-31T22:43:20.553Z,37.17
2018-12-31T22:45:51.181Z,37.03
2018-12-31T22:48:22.931Z,41.07
2018-12-31T22:50:53.914Z,82.40
2018-12-31T22:53:24.801Z,95.27
2018-12-31T22:55:55.702Z,83.83
2018-12-31T22:58:26.376Z,74.80
2018-12-31T23:00:57.434Z,64.67
2018-12-31T23:03:28.232Z,64.47
2018-12-31T23:05:58.887Z,72.27
2018-12-31T23:08:29.617Z,117.00
2018-12-31T23:11:00.457Z,288.57
2018-12-31T23:13:34.993Z,296.13
2018-12-31T23:16:05.816Z,293.50
2018-12-31T23:18:36.582Z,341.17
2018-12-31T23:21:07.290Z,317.20
2018-12-31T23:23:38.012Z,402.20
2018-12-31T23:26:08.737Z,433.67
2018-12-31T23:28:39.865Z,486.53
2018-12-31T23:31:10.579Z,464.90
2018-12-31T23:33:41.273Z,494.43
2018-12-31T23:36:12.969Z,496.20
2018-12-31T23:38:43.742Z,446.40
2018-12-31T23:41:15.152Z,282.57
2018-12-31T23:43:47.130Z,174.00
2018-12-31T23:46:17.924Z,164.83
2018-12-31T23:48:48.998Z,175.57
2018-12-31T23:51:19.995Z,346.10
2018-12-31T23:53:51.361Z,474.43
2018-12-31T23:56:22.108Z,475.87
2018-12-31T23:58:54.228Z,479.40
